createdAt,value
2023-05-03T00:02:39.996Z,2.05
2023-05-03T00:06:43.906Z,2.08
2023-05-03T00:10:45.528Z,2.25
2023-05-03T00:14:47.016Z,2.00
2023-05-03T00:18:49.302Z,1.65
2023-05-03T00:22:51.663Z,1.95
2023-05-03T00:26:53.063Z,1.95
2023-05-03T00:30:54.595Z,2.03
2023-05-03T00:34:57.092Z,2.35
2023-05-03T00:38:58.653Z,1.73
2023-05-03T00:43:00.111Z,1.88
2023-05-03T00:47:02.295Z,2.03
2023-05-03T00:51:06.901Z,2.00
2023-05-03T00:55:09.613Z,2.70
2023-05-03T00:59:11.929Z,2.28
2023-05-03T01:03:13.591Z,1.95
2023-05-03T01:07:37.871Z,2.22
2023-05-03T01:11:53.980Z,2.40
2023-05-03T01:16:00.933Z,2.20
2023-05-03T01:20:11.242Z,2.38
2023-05-03T01:24:21.892Z,2.13
2023-05-03T01:28:23.315Z,2.28
2023-05-03T01:32:48.953Z,2.42
2023-05-03T01:36:53.745Z,2.47
2023-05-03T01:40:59.529Z,2.10
2023-05-03T01:45:03.995Z,2.17
2023-05-03T01:49:05.501Z,2.80
2023-05-03T01:53:07.031Z,2.47
2023-05-03T01:57:08.478Z,2.38
2023-05-03T02:01:10.038Z,2.17
2023-05-03T02:05:12.410Z,2.10
2023-05-03T02:09:13.908Z,2.63
2023-05-03T02:13:16.416Z,2.28
2023-05-03T02:17:18.919Z,2.28
2023-05-03T02:21:20.400Z,2.50
2023-05-03T02:25:21.904Z,2.30
2023-05-03T02:29:23.316Z,1.83
2023-05-03T02:33:24.846Z,1.92
2023-05-03T02:37:26.269Z,2.30
2023-05-03T02:41:28.650Z,2.53
2023-05-03T02:45:30.219Z,2.50
2023-05-03T02:49:31.604Z,1.83
2023-05-03T02:53:33.030Z,2.40
2023-05-03T02:57:34.545Z,2.10
2023-05-03T03:01:36.089Z,2.28
2023-05-03T03:05:37.542Z,2.00
2023-05-03T03:09:38.972Z,1.90
2023-05-03T03:13:41.245Z,2.22
2023-05-03T03:17:42.869Z,2.13
2023-05-03T03:21:44.423Z,2.70
2023-05-03T03:25:45.841Z,2.10
2023-05-03T03:29:47.663Z,1.95
2023-05-03T03:33:49.482Z,2.33
2023-05-03T03:37:50.997Z,1.90
2023-05-03T03:41:52.488Z,2.10
2023-05-03T03:45:54.115Z,2.30
2023-05-03T03:49:55.670Z,2.30
2023-05-03T03:53:57.107Z,1.98
2023-05-03T03:57:58.730Z,2.03
2023-05-03T04:02:00.248Z,2.50
2023-05-03T04:06:01.834Z,1.60
2023-05-03T04:10:03.770Z,2.22
2023-05-03T04:14:05.349Z,1.75
2023-05-03T04:18:07.287Z,2.10
2023-05-03T04:22:08.775Z,2.17
2023-05-03T04:26:14.555Z,1.88
2023-05-03T04:30:25.748Z,1.70
2023-05-03T04:34:27.191Z,2.25
2023-05-03T04:38:28.739Z,2.00
2023-05-03T04:42:30.220Z,1.73
2023-05-03T04:46:31.857Z,2.10
2023-05-03T04:50:36.110Z,2.15
2023-05-03T04:54:37.540Z,2.35
2023-05-03T04:58:39.093Z,1.80
2023-05-03T05:02:42.449Z,2.45
2023-05-03T05:06:44.002Z,2.00
2023-05-03T05:10:45.479Z,3.25
2023-05-03T05:14:46.972Z,2.15
2023-05-03T05:18:48.646Z,2.00
2023-05-03T05:22:50.118Z,1.92
2023-05-03T05:26:51.594Z,1.85
2023-05-03T05:30:53.025Z,2.40
2023-05-03T05:34:55.500Z,2.42
2023-05-03T05:38:57.124Z,2.55
2023-05-03T05:42:58.565Z,2.40
2023-05-03T05:47:00.073Z,2.25
2023-05-03T05:51:01.552Z,2.08
2023-05-03T05:55:03.041Z,1.85
2023-05-03T05:59:05.864Z,2.30
2023-05-03T06:03:07.974Z,2.05
2023-05-03T06:07:09.464Z,2.58
2023-05-03T06:11:14.059Z,2.13
2023-05-03T06:15:15.525Z,1.88
2023-05-03T06:19:16.996Z,2.38
2023-05-03T06:23:18.547Z,1.90
2023-05-03T06:27:20.001Z,2.25
2023-05-03T06:31:21.530Z,1.60
2023-05-03T06:35:23.700Z,1.67
2023-05-03T06:39:25.181Z,1.80
2023-05-03T06:43:26.619Z,1.73
2023-05-03T06:47:28.041Z,1.67
2023-05-03T06:51:30.907Z,1.75
2023-05-03T06:55:32.974Z,1.33
2023-05-03T06:59:34.378Z,1.50
2023-05-03T07:03:40.054Z,1.80
2023-05-03T07:07:43.140Z,2.28
2023-05-03T07:11:49.445Z,1.98
2023-05-03T07:15:51.174Z,1.63
2023-05-03T07:19:53.143Z,1.77
2023-05-03T07:23:54.784Z,1.60
2023-05-03T07:27:56.250Z,1.60
2023-05-03T07:31:57.854Z,1.48
2023-05-03T07:35:59.471Z,1.45
2023-05-03T07:40:01.158Z,1.85
2023-05-03T07:44:03.199Z,1.50
2023-05-03T07:48:06.413Z,1.73
2023-05-03T07:52:07.971Z,1.80
2023-05-03T07:56:09.440Z,1.45
2023-05-03T08:00:12.377Z,1.60
2023-05-03T08:04:14.253Z,1.33
2023-05-03T08:08:15.942Z,1.60
2023-05-03T08:12:17.491Z,1.85
2023-05-03T08:16:19.860Z,1.75
2023-05-03T08:20:21.736Z,4.55
2023-05-03T08:24:23.288Z,2.00
2023-05-03T08:28:24.727Z,1.92
2023-05-03T08:32:26.267Z,1.70
2023-05-03T08:36:27.993Z,1.40
2023-05-03T08:40:29.690Z,1.70
2023-05-03T08:44:33.021Z,1.65
2023-05-03T08:48:34.474Z,1.90
2023-05-03T08:52:36.168Z,2.50
2023-05-03T08:56:42.792Z,1.90
2023-05-03T09:00:45.200Z,1.77
2023-05-03T09:04:46.967Z,1.73
2023-05-03T09:08:48.671Z,1.77
2023-05-03T09:12:58.205Z,2.83
2023-05-03T09:17:15.693Z,1.60
2023-05-03T09:21:20.684Z,2.30
2023-05-03T09:25:22.332Z,1.75
2023-05-03T09:29:35.922Z,1.45
2023-05-03T09:33:37.377Z,1.88
2023-05-03T09:37:39.064Z,2.55
2023-05-03T09:41:40.807Z,1.75
2023-05-03T09:45:42.319Z,2.17
2023-05-03T09:49:44.279Z,1.73
2023-05-03T09:53:47.294Z,1.60
2023-05-03T09:57:50.818Z,1.58
2023-05-03T10:01:56.747Z,2.10
2023-05-03T10:10:04.732Z,1.52
2023-05-03T10:14:07.769Z,1.67
2023-05-03T10:18:13.319Z,1.80
2023-05-03T10:22:14.888Z,1.33
2023-05-03T10:26:16.638Z,1.65
2023-05-03T10:30:33.286Z,1.67
2023-05-03T10:34:36.857Z,1.70
2023-05-03T10:38:38.449Z,1.73
2023-05-03T10:42:44.232Z,1.42
2023-05-03T10:46:46.384Z,1.30
2023-05-03T10:50:47.992Z,1.85
2023-05-03T10:54:49.443Z,1.83
2023-05-03T10:58:51.189Z,1.90
2023-05-03T11:03:11.270Z,1.30
2023-05-03T11:07:21.467Z,1.80
2023-05-03T11:11:23.234Z,1.40
2023-05-03T11:15:24.950Z,1.40
2023-05-03T11:19:26.784Z,1.08
2023-05-03T11:23:29.692Z,1.48
2023-05-03T11:27:31.274Z,1.70
2023-05-03T11:31:33.074Z,1.45
2023-05-03T11:35:34.543Z,1.65
2023-05-03T11:39:36.435Z,1.35
2023-05-03T11:43:42.728Z,1.70
2023-05-03T11:47:44.591Z,1.27
2023-05-03T11:51:49.169Z,1.27
2023-05-03T11:55:54.236Z,1.70
2023-05-03T12:00:09.448Z,1.80
2023-05-03T12:04:13.009Z,1.90
2023-05-03T12:08:17.138Z,1.80
2023-05-03T12:12:23.650Z,2.25
2023-05-03T12:16:27.513Z,1.80
2023-05-03T12:21:28.471Z,1.50
2023-05-03T12:24:54.699Z,1.77
2023-05-03T12:28:57.211Z,1.50
2023-05-03T12:32:59.143Z,1.30
2023-05-03T12:37:04.711Z,1.25
2023-05-03T12:41:09.164Z,1.52
2023-05-03T12:45:14.479Z,1.60
2023-05-03T12:49:16.593Z,1.65
2023-05-03T12:53:18.428Z,1.75
2023-05-03T12:57:22.962Z,1.65
2023-05-03T13:05:35.843Z,2.00
2023-05-03T13:10:13.005Z,1.83
2023-05-03T13:13:59.664Z,1.45
2023-05-03T13:18:03.154Z,1.88
2023-05-03T13:22:05.043Z,1.55
2023-05-03T13:26:06.914Z,1.33
2023-05-03T13:30:09.971Z,1.70
2023-05-03T13:34:11.524Z,1.60
2023-05-03T13:38:13.032Z,1.40
2023-05-03T13:42:14.510Z,1.67
2023-05-03T13:46:16.717Z,1.60
2023-05-03T13:50:18.748Z,2.30
2023-05-03T13:54:20.619Z,1.50
2023-05-03T13:58:22.087Z,1.70
2023-05-03T14:02:23.563Z,1.75
2023-05-03T14:06:25.421Z,1.67
2023-05-03T14:10:27.104Z,1.80
2023-05-03T14:14:28.564Z,1.40
2023-05-03T14:18:30.080Z,1.90
2023-05-03T14:22:33.426Z,1.70
2023-05-03T14:26:35.126Z,1.50
2023-05-03T14:30:36.671Z,2.10
2023-05-03T14:34:38.408Z,1.35
2023-05-03T14:38:39.872Z,1.10
2023-05-03T14:42:41.527Z,2.08
2023-05-03T14:46:43.020Z,2.03
2023-05-03T14:50:49.395Z,1.50
2023-05-03T14:54:50.954Z,1.38
2023-05-03T14:58:52.383Z,1.80
2023-05-03T15:02:55.911Z,1.48
2023-05-03T15:07:02.808Z,1.60
2023-05-03T15:11:05.112Z,2.05
2023-05-03T15:15:12.469Z,1.38
2023-05-03T15:19:13.912Z,1.58
2023-05-03T15:23:15.372Z,1.95
2023-05-03T15:27:16.804Z,1.63
2023-05-03T15:31:18.321Z,1.80
2023-05-03T15:35:20.069Z,2.53
2023-05-03T15:39:22.889Z,1.42
2023-05-03T15:43:24.320Z,1.25
2023-05-03T15:47:26.792Z,1.20
2023-05-03T15:51:29.171Z,2.42
2023-05-03T15:55:30.934Z,2.33
2023-05-03T15:59:32.428Z,1.60
2023-05-03T16:03:34.000Z,1.60
2023-05-03T16:07:36.608Z,1.40
2023-05-03T16:11:38.401Z,1.92
2023-05-03T16:15:39.917Z,1.50
2023-05-03T16:19:41.427Z,1.63
2023-05-03T16:23:42.928Z,1.50
2023-05-03T16:27:44.543Z,1.63
2023-05-03T16:31:47.157Z,1.60
2023-05-03T16:35:49.889Z,1.42
2023-05-03T16:39:51.378Z,1.67
2023-05-03T16:43:52.845Z,1.33
2023-05-03T16:47:54.335Z,1.38
2023-05-03T16:51:56.595Z,1.70
2023-05-03T16:55:58.240Z,2.00
2023-05-03T17:00:02.520Z,1.33
2023-05-03T17:04:06.525Z,1.60
2023-05-03T17:08:08.330Z,1.40
2023-05-03T17:12:09.804Z,1.50
2023-05-03T17:16:15.126Z,1.27
2023-05-03T17:20:16.833Z,1.58
2023-05-03T17:24:18.272Z,1.80
2023-05-03T17:28:19.721Z,1.60
2023-05-03T17:32:21.505Z,1.50
2023-05-03T17:36:23.082Z,1.50
2023-05-03T17:40:25.080Z,1.55
2023-05-03T17:44:27.096Z,1.83
2023-05-03T17:48:28.525Z,1.33
2023-05-03T17:52:30.092Z,2.35
2023-05-03T17:56:31.536Z,2.00
2023-05-03T18:00:33.502Z,2.15
2023-05-03T18:04:35.455Z,1.85
2023-05-03T18:08:37.000Z,1.55
2023-05-03T18:12:38.467Z,2.00
2023-05-03T18:16:40.329Z,1.98
2023-05-03T18:20:41.884Z,1.95
2023-05-03T18:24:43.414Z,2.42
2023-05-03T18:28:44.804Z,1.95
2023-05-03T18:32:48.860Z,1.90
2023-05-03T18:36:50.358Z,1.30
2023-05-03T18:40:51.860Z,1.67
2023-05-03T18:44:53.577Z,2.08
2023-05-03T18:48:55.188Z,2.47
2023-05-03T18:52:56.591Z,2.15
2023-05-03T18:57:01.969Z,2.13
2023-05-03T19:01:04.797Z,2.17
2023-05-03T19:05:06.906Z,2.30
2023-05-03T19:09:11.841Z,2.03
2023-05-03T19:13:14.962Z,2.35
2023-05-03T19:17:16.727Z,2.35
2023-05-03T19:21:19.562Z,2.25
2023-05-03T19:25:21.043Z,2.10
2023-05-03T19:29:22.523Z,2.20
2023-05-03T19:33:25.644Z,2.30
2023-05-03T19:37:27.185Z,1.85
2023-05-03T19:41:28.912Z,2.35
2023-05-03T19:45:30.687Z,1.92
2023-05-03T19:49:32.566Z,3.17
2023-05-03T19:53:34.037Z,1.70
2023-05-03T19:57:36.345Z,2.20
2023-05-03T20:01:37.927Z,2.40
2023-05-03T20:05:39.470Z,2.30
2023-05-03T20:09:41.085Z,3.20
2023-05-03T20:13:42.525Z,3.60
2023-05-03T20:17:43.982Z,2.85
2023-05-03T20:21:45.491Z,4.13
2023-05-03T20:25:47.296Z,4.50
2023-05-03T20:29:48.709Z,2.90
2023-05-03T20:33:50.148Z,3.22
2023-05-03T20:37:51.631Z,2.80
2023-05-03T20:41:53.067Z,3.88
2023-05-03T20:45:54.596Z,3.45
2023-05-03T20:49:55.999Z,3.38
2023-05-03T20:53:57.459Z,2.85
2023-05-03T20:57:58.944Z,3.78
2023-05-03T21:02:00.990Z,3.05
2023-05-03T21:06:02.840Z,3.55
2023-05-03T21:10:05.864Z,2.33
2023-05-03T21:14:07.493Z,2.88
2023-05-03T21:18:09.899Z,2.75
2023-05-03T21:22:11.987Z,2.40
2023-05-03T21:26:14.192Z,2.72
2023-05-03T21:30:15.824Z,2.42
2023-05-03T21:34:17.370Z,2.35
2023-05-03T21:38:18.985Z,2.42
2023-05-03T21:42:20.413Z,3.63
2023-05-03T21:46:22.804Z,2.28
2023-05-03T21:50:24.568Z,2.60
2023-05-03T21:54:29.796Z,2.13
2023-05-03T21:58:31.229Z,2.13
2023-05-03T22:02:32.860Z,2.60
2023-05-03T22:06:34.307Z,2.25
2023-05-03T22:10:37.018Z,2.05
2023-05-03T22:14:38.447Z,2.30
2023-05-03T22:18:39.868Z,2.90
2023-05-03T22:22:41.767Z,2.67
2023-05-03T22:26:43.181Z,2.20
2023-05-03T22:30:44.588Z,2.67
2023-05-03T22:34:46.245Z,2.22
2023-05-03T22:38:47.717Z,2.63
2023-05-03T22:42:49.185Z,2.83
2023-05-03T22:46:50.760Z,2.75
2023-05-03T22:50:52.139Z,2.47
2023-05-03T22:55:00.498Z,2.58
2023-05-03T22:59:01.971Z,2.53
2023-05-03T23:03:03.558Z,3.05
2023-05-03T23:07:05.090Z,3.10
2023-05-03T23:11:06.676Z,3.00
2023-05-03T23:15:08.353Z,3.47
2023-05-03T23:19:09.867Z,2.97
2023-05-03T23:23:11.308Z,3.38
2023-05-03T23:27:13.054Z,2.92
2023-05-03T23:31:15.050Z,2.90
2023-05-03T23:35:16.941Z,3.10
2023-05-03T23:39:18.611Z,2.72
2023-05-03T23:43:20.054Z,3.15
2023-05-03T23:47:21.538Z,2.65
2023-05-03T23:51:22.977Z,2.80
2023-05-03T23:55:25.106Z,2.75
2023-05-03T23:59:26.576Z,2.67
